Time;durP1;ratioP1;P1;durP2;ratioP2;P2;SDS_P1;SDS_P2;PMS_P1;PMS_P2;Temp;Humidity;BMP_temperature;BMP_pressure;BME280_temperature;BME280_humidity;BME280_pressure;Samples;Min_cycle;Max_cycle;Signal;HPM_P1;HPM_P2
2023/01/12 00:00:11;;;;;;;3.90;2.97;;;;;;;6.27;100.00;102126.94;2101398;28;20601;-63
2023/01/12 00:01:11;;;;;;;3.90;2.77;;;;;;;6.09;100.00;102101.06;2098935;28;20182;-63
2023/01/12 00:02:14;;;;;;;3.53;3.00;;;;;;;6.27;100.00;102120.63;2104634;28;20190;-63
2023/01/12 00:03:14;;;;;;;3.92;2.90;;;;;;;6.13;100.00;102110.19;2096923;28;20229;-64
2023/01/12 00:04:15;;;;;;;4.07;3.17;;;;;;;6.26;100.00;102127.31;2097866;28;20230;-65
2023/01/12 00:05:16;;;;;;;3.80;2.85;;;;;;;6.15;100.00;102104.31;2104781;28;20205;-64
2023/01/12 00:06:18;;;;;;;3.50;3.00;;;;;;;6.27;100.00;102117.88;2099551;28;20194;-63
2023/01/12 00:07:19;;;;;;;3.53;3.08;;;;;;;6.26;100.00;102121.81;2101864;28;20714;-63
2023/01/12 00:08:19;;;;;;;3.63;3.03;;;;;;;6.25;100.00;102121.00;2101951;28;20619;-64
2023/01/12 00:09:20;;;;;;;3.23;2.87;;;;;;;6.25;100.00;102122.97;2099899;28;20563;-64
2023/01/12 00:10:20;;;;;;;4.13;3.10;;;;;;;6.20;100.00;102129.56;2105185;28;20209;-64
2023/01/12 00:11:20;;;;;;;4.67;3.20;;;;;;;6.18;100.00;102123.63;2105168;28;20693;-64
2023/01/12 00:12:21;;;;;;;5.90;3.30;;;;;;;6.17;100.00;102124.00;2097765;28;20187;-64
2023/01/12 00:13:21;;;;;;;3.90;3.50;;;;;;;6.18;100.00;102118.13;2104838;28;20190;-63
2023/01/12 00:14:22;;;;;;;4.67;3.37;;;;;;;5.62;100.00;102039.22;2105742;28;20476;-63
2023/01/12 00:16:41;;;;;;;4.72;3.53;;;;;;;6.11;100.00;102128.22;2098961;28;20184;-64
2023/01/12 00:17:42;;;;;;;4.30;3.70;;;;;;;6.12;100.00;102124.31;2097181;28;20206;-63
2023/01/12 00:18:42;;;;;;;4.00;3.57;;;;;;;6.09;100.00;102114.00;2097315;28;20193;-63
2023/01/12 00:19:42;;;;;;;4.67;3.63;;;;;;;6.09;100.00;102119.50;2096953;28;20194;-64
2023/01/12 00:20:47;;;;;;;4.27;3.30;;;;;;;6.02;100.00;102119.41;2098616;28;20182;-63
2023/01/12 00:22:53;;;;;;;4.18;3.75;;;;;;;6.02;100.00;102122.16;2097171;28;20644;-63
2023/01/12 00:23:54;;;;;;;4.37;3.50;;;;;;;5.98;100.00;102124.84;2097360;28;20608;-64
2023/01/12 00:24:54;;;;;;;5.23;3.90;;;;;;;5.91;100.00;102121.97;2095870;28;20195;-63
2023/01/12 00:25:55;;;;;;;3.90;3.30;;;;;;;4.99;100.00;101974.78;2096464;28;20175;-64
2023/01/12 00:26:57;;;;;;;4.67;3.70;;;;;;;5.97;100.00;102125.19;2097343;28;20215;-64
2023/01/12 00:27:57;;;;;;;3.55;2.97;;;;;;;5.95;100.00;102119.28;2097341;28;20248;-63
2023/01/12 00:28:58;;;;;;;3.43;2.80;;;;;;;5.96;100.00;102127.19;2097201;28;20207;-64
2023/01/12 00:29:58;;;;;;;3.97;3.00;;;;;;;5.95;100.00;102130.28;2098810;28;20190;-64
2023/01/12 00:31:06;;;;;;;3.20;2.70;;;;;;;5.93;100.00;102129.84;2103746;28;20205;-63
2023/01/12 00:32:11;;;;;;;4.15;3.13;;;;;;;5.94;100.00;102123.97;2097154;28;20162;-63
2023/01/12 00:33:12;;;;;;;3.25;2.78;;;;;;;5.95;100.00;102142.06;2097112;28;20313;-64
2023/01/12 00:34:14;;;;;;;3.40;2.80;;;;;;;5.97;100.00;102126.00;2097437;28;20217;-64
2023/01/12 00:35:16;;;;;;;3.55;2.90;;;;;;;5.94;100.00;102128.69;2097069;28;20194;-63
2023/01/12 00:36:18;;;;;;;3.80;2.72;;;;;;;5.93;100.00;102127.09;2096886;28;20286;-63
2023/01/12 00:37:18;;;;;;;3.45;2.97;;;;;;;5.84;100.00;102119.06;2102396;28;20360;-63
2023/01/12 00:38:19;;;;;;;3.30;2.73;;;;;;;5.88;100.00;102125.44;2101107;28;20301;-63
2023/01/12 00:39:20;;;;;;;3.10;2.80;;;;;;;5.89;100.00;102126.25;2096780;28;20187;-64
2023/01/12 00:40:20;;;;;;;2.90;2.50;;;;;;;5.49;100.00;102071.59;2096527;28;20254;-63
2023/01/12 00:45:21;;;;;;;2.90;2.30;;;;;;;5.83;100.00;102120.22;2100142;28;20198;-64
2023/01/12 00:46:31;;;;;;;2.92;2.47;;;;;;;5.78;100.00;102117.75;2101228;28;20194;-64
2023/01/12 00:47:32;;;;;;;2.83;2.53;;;;;;;5.77;100.00;102120.84;2100307;28;20268;-64
2023/01/12 00:48:32;;;;;;;3.87;2.80;;;;;;;5.75;100.00;102112.19;2102879;28;20198;-63
2023/01/12 00:49:35;;;;;;;3.00;2.33;;;;;;;5.78;100.00;102116.94;2105007;28;20688;-63
2023/01/12 00:50:35;;;;;;;2.85;2.55;;;;;;;5.79;100.00;102124.84;2095319;28;20204;-63
2023/01/12 00:51:35;;;;;;;3.60;2.47;;;;;;;5.73;100.00;102112.53;2096873;28;20684;-64
2023/01/12 00:52:36;;;;;;;3.47;2.70;;;;;;;5.11;100.00;102018.59;2097193;28;20190;-63
2023/01/12 00:53:36;;;;;;;3.27;2.90;;;;;;;5.70;100.00;102123.47;2097350;28;20199;-64
2023/01/12 00:54:37;;;;;;;3.27;2.97;;;;;;;5.65;100.00;102126.53;2102686;28;20190;-63
2023/01/12 00:55:39;;;;;;;3.83;3.10;;;;;;;5.43;100.00;102110.75;2105336;28;20226;-64
2023/01/12 00:56:39;;;;;;;3.55;3.20;;;;;;;5.57;100.00;102128.34;2105345;28;20214;-64
2023/01/12 00:57:40;;;;;;;3.70;3.23;;;;;;;5.53;100.00;102127.47;2102513;28;20529;-64
2023/01/12 00:58:40;;;;;;;3.77;3.27;;;;;;;5.60;100.00;102135.84;2098258;28;20558;-64
2023/01/12 00:59:43;;;;;;;3.47;2.73;;;;;;;5.56;100.00;102135.00;2104961;28;20183;-63
2023/01/12 01:00:43;;;;;;;3.83;3.00;;;;;;;5.54;100.00;102134.53;2105135;28;20219;-64
2023/01/12 01:01:44;;;;;;;4.10;3.07;;;;;;;5.43;100.00;102124.50;2088890;28;20206;-64
2023/01/12 01:02:44;;;;;;;3.80;3.03;;;;;;;5.45;100.00;102128.50;2094450;28;20214;-63
2023/01/12 01:03:45;;;;;;;4.07;3.07;;;;;;;5.14;100.00;102065.38;2105335;28;20197;-64
2023/01/12 01:04:45;;;;;;;3.43;2.97;;;;;;;5.48;100.00;102129.72;2100906;28;20653;-64
2023/01/12 01:05:46;;;;;;;3.70;2.83;;;;;;;5.34;100.00;102110.16;2096732;28;20596;-63
2023/01/12 01:06:46;;;;;;;3.73;3.17;;;;;;;5.45;100.00;102130.44;2096993;28;20202;-64
2023/01/12 01:07:47;;;;;;;4.27;3.00;;;;;;;5.43;100.00;102127.25;2097082;28;20191;-64
2023/01/12 01:08:47;;;;;;;3.13;2.83;;;;;;;5.39;100.00;102118.13;2105596;28;20548;-63
2023/01/12 01:09:48;;;;;;;3.47;3.13;;;;;;;5.33;100.00;102123.09;2097357;28;20180;-64
2023/01/12 01:10:49;;;;;;;4.40;3.43;;;;;;;5.41;100.00;102121.31;2102677;28;20221;-64
2023/01/12 01:11:49;;;;;;;4.90;3.57;;;;;;;5.34;100.00;102110.94;2099984;28;20237;-64
2023/01/12 01:12:50;;;;;;;3.80;3.13;;;;;;;5.00;100.00;102048.59;2100796;28;20191;-64
2023/01/12 01:13:53;;;;;;;4.30;3.20;;;;;;;4.48;100.00;101965.88;2104970;28;20213;-64
2023/01/12 01:14:54;;;;;;;4.07;3.30;;;;;;;5.41;100.00;102116.63;2104972;28;20190;-63
2023/01/12 01:15:54;;;;;;;4.57;3.57;;;;;;;5.46;100.00;102121.00;2104123;28;20171;-63
2023/01/12 01:16:54;;;;;;;4.27;3.40;;;;;;;5.42;100.00;102104.44;2097085;28;20178;-64
2023/01/12 01:17:55;;;;;;;3.87;3.17;;;;;;;5.39;100.00;102105.16;2096747;28;20204;-63
2023/01/12 01:18:56;;;;;;;4.80;3.90;;;;;;;5.39;100.00;102107.91;2094568;28;20201;-64
2023/01/12 01:19:57;;;;;;;4.80;4.20;;;;;;;4.21;100.00;101936.63;2090164;28;20199;-63
2023/01/12 01:20:57;;;;;;;4.67;4.10;;;;;;;5.14;100.00;102094.81;2096349;28;20206;-64
2023/01/12 01:21:58;;;;;;;4.50;4.10;;;;;;;5.29;100.00;102116.72;2097080;28;20195;-64
2023/01/12 01:22:58;;;;;;;4.80;4.00;;;;;;;5.33;100.00;102116.84;2096806;28;20176;-64
2023/01/12 01:23:59;;;;;;;5.23;4.47;;;;;;;5.34;100.00;102121.94;2097664;28;20165;-64
2023/01/12 01:25:00;;;;;;;5.00;4.50;;;;;;;5.35;100.00;102123.56;2105216;28;20173;-64
2023/01/12 01:26:10;;;;;;;5.23;4.73;;;;;;;4.28;100.00;101953.25;2104944;28;20186;-64
2023/01/12 01:27:11;;;;;;;5.93;4.50;;;;;;;5.41;100.00;102132.31;2096712;28;20175;-64
2023/01/12 01:28:11;;;;;;;5.50;4.30;;;;;;;5.40;100.00;102136.22;2097178;28;20195;-64
2023/01/12 01:29:11;;;;;;;5.20;4.50;;;;;;;5.44;100.00;102131.59;2096986;28;20195;-63
2023/01/12 01:30:12;;;;;;;4.10;3.60;;;;;;;5.03;100.00;102066.31;2100799;28;20676;-63
2023/01/12 01:31:14;;;;;;;4.57;3.50;;;;;;;5.49;100.00;102134.06;2101561;28;20662;-64
2023/01/12 01:32:14;;;;;;;4.28;3.38;;;;;;;5.32;100.00;102106.97;2097020;28;20186;-64
2023/01/12 01:33:15;;;;;;;3.70;3.10;;;;;;;5.49;100.00;102125.81;2098000;28;20262;-64
2023/01/12 01:34:15;;;;;;;7.73;3.63;;;;;;;5.47;100.00;102123.41;2105108;28;20688;-63
2023/01/12 01:35:16;;;;;;;4.20;3.67;;;;;;;5.35;100.00;102120.00;2096719;28;20178;-64
2023/01/12 01:36:18;;;;;;;4.43;3.63;;;;;;;5.35;100.00;102122.75;2096997;28;20226;-64
2023/01/12 01:37:20;;;;;;;4.07;3.53;;;;;;;5.34;100.00;102127.44;2096399;28;20587;-64
2023/01/12 01:38:21;;;;;;;5.18;3.25;;;;;;;5.38;100.00;102128.31;2102498;28;20190;-64
2023/01/12 01:39:21;;;;;;;4.83;3.60;;;;;;;5.37;100.00;102123.16;2104752;28;20201;-64
2023/01/12 01:40:22;;;;;;;4.63;3.47;;;;;;;5.42;100.00;102131.13;2101329;28;20525;-64
2023/01/12 01:41:28;;;;;;;3.50;2.90;;;;;;;5.45;100.00;102124.94;2097008;28;20633;-64
2023/01/12 01:42:29;;;;;;;4.00;3.03;;;;;;;5.50;100.00;102133.69;2096928;28;20201;-64
2023/01/12 01:43:49;;;;;;;4.23;3.40;;;;;;;5.48;100.00;102129.72;2096623;28;20227;-64
2023/01/12 01:44:53;;;;;;;4.13;3.30;;;;;;;5.47;100.00;102130.84;2096434;28;20174;-63
2023/01/12 01:46:07;;;;;;;4.43;3.70;;;;;;;5.44;100.00;102131.59;2096679;28;20174;-64
2023/01/12 01:47:18;;;;;;;4.63;3.65;;;;;;;5.48;100.00;102124.22;2098325;28;20162;-64
2023/01/12 01:48:18;;;;;;;6.65;4.55;;;;;;;4.77;100.00;102024.94;2102857;28;20380;-63
2023/01/12 01:49:33;;;;;;;6.47;5.03;;;;;;;5.37;100.00;102132.22;2097496;28;20182;-63
2023/01/12 01:50:38;;;;;;;5.57;4.45;;;;;;;5.38;100.00;102133.03;2102492;28;20204;-64
2023/01/12 01:51:40;;;;;;;4.80;4.07;;;;;;;5.37;100.00;102137.72;2098490;28;20198;-63
2023/01/12 01:52:44;;;;;;;5.32;4.18;;;;;;;5.41;100.00;102132.31;2104500;28;20183;-64
2023/01/12 01:53:45;;;;;;;5.75;4.50;;;;;;;5.42;100.00;102131.13;2097218;28;20178;-64
2023/01/12 01:54:54;;;;;;;4.10;3.60;;;;;;;5.48;100.00;102137.97;2104813;28;20225;-64
2023/01/12 01:56:04;;;;;;;5.20;4.05;;;;;;;5.10;100.00;102091.19;2105075;28;20251;-63
2023/01/12 01:57:06;;;;;;;4.80;4.20;;;;;;;5.39;100.00;102131.88;2096688;28;20729;-64
2023/01/12 01:58:11;;;;;;;5.38;3.70;;;;;;;5.17;100.00;102121.56;2096932;28;20191;-64
2023/01/12 01:59:20;;;;;;;4.20;3.80;;;;;;;5.37;100.00;102121.22;2103516;28;20200;-63
2023/01/12 02:00:22;;;;;;;6.30;4.57;;;;;;;4.91;100.00;102038.97;2097936;28;20301;-63
2023/01/12 02:01:23;;;;;;;7.43;5.18;;;;;;;4.38;100.00;101954.63;2096655;28;20246;-63
2023/01/12 02:02:24;;;;;;;6.20;4.63;;;;;;;5.42;100.00;102133.88;2096637;28;20192;-63
2023/01/12 02:03:25;;;;;;;7.15;4.85;;;;;;;5.41;100.00;102132.31;2100178;28;20251;-64
2023/01/12 02:04:26;;;;;;;8.85;6.00;;;;;;;5.46;100.00;102137.50;2102562;28;20724;-64
2023/01/12 02:05:27;;;;;;;9.27;5.60;;;;;;;5.30;100.00;102106.53;2097701;28;20210;-64
2023/01/12 02:06:28;;;;;;;6.90;5.05;;;;;;;5.12;100.00;102077.91;2106196;28;20227;-63
2023/01/12 02:07:29;;;;;;;8.17;5.10;;;;;;;5.48;100.00;102133.25;2098219;28;20189;-63
2023/01/12 02:08:59;;;;;;;8.00;4.83;;;;;;;5.40;100.00;102126.03;2105905;28;20212;-63
2023/01/12 02:10:01;;;;;;;7.05;5.07;;;;;;;5.34;100.00;102132.94;2104994;28;20171;-63
2023/01/12 02:11:02;;;;;;;6.97;4.63;;;;;;;5.26;100.00;102135.91;2098395;28;20272;-64
2023/01/12 02:16:21;;;;;;;6.80;4.32;;;;;;;5.44;100.00;102135.13;2102043;28;20233;-63
2023/01/12 02:18:00;;;;;;;6.18;4.75;;;;;;;5.47;100.00;102128.09;2106131;28;20259;-63
2023/01/12 02:19:25;;;;;;;5.63;4.13;;;;;;;5.45;100.00;102128.50;2098720;28;20175;-63
2023/01/12 02:20:58;;;;;;;4.97;3.53;;;;;;;5.39;100.00;102126.38;2097756;28;20183;-64
2023/01/12 02:22:01;;;;;;;4.90;3.67;;;;;;;5.37;100.00;102128.66;2094018;28;20552;-63
2023/01/12 02:23:13;;;;;;;4.53;3.40;;;;;;;5.24;100.00;102129.97;2097768;28;20276;-63
2023/01/12 02:24:32;;;;;;;4.10;3.63;;;;;;;5.30;100.00;102126.59;2102008;28;20186;-63
2023/01/12 02:26:04;;;;;;;4.90;3.88;;;;;;;5.34;100.00;102118.41;2103552;28;20607;-64
2023/01/12 02:27:28;;;;;;;3.80;3.40;;;;;;;5.33;100.00;102114.09;2072330;28;20728;-63
2023/01/12 02:28:47;;;;;;;4.80;3.80;;;;;;;5.33;100.00;102125.06;2098290;28;20197;-63
2023/01/12 02:30:09;;;;;;;3.50;3.13;;;;;;;5.26;100.00;102116.66;2097810;28;20710;-64
2023/01/12 02:31:41;;;;;;;5.45;3.15;;;;;;;5.34;100.00;102118.41;2102679;28;20634;-63
2023/01/12 02:33:01;;;;;;;4.25;3.80;;;;;;;4.71;100.00;102029.09;2106516;28;20522;-64
2023/01/12 02:34:02;;;;;;;4.30;3.83;;;;;;;5.40;100.00;102116.97;2098554;28;20162;-63
2023/01/12 02:35:14;;;;;;;3.90;3.20;;;;;;;5.43;100.00;102110.75;2106108;28;20181;-64
2023/01/12 02:36:49;;;;;;;4.05;3.65;;;;;;;5.45;100.00;102117.50;2098189;28;20293;-64
2023/01/12 02:38:23;;;;;;;4.15;3.70;;;;;;;5.43;100.00;102117.03;2106101;28;20599;-63
2023/01/12 02:39:37;;;;;;;4.93;3.70;;;;;;;5.46;100.00;102115.53;2100087;28;20273;-64
2023/01/12 02:41:09;;;;;;;4.63;3.58;;;;;;;5.46;100.00;102112.78;2104235;28;20193;-64
2023/01/12 02:42:41;;;;;;;3.67;3.25;;;;;;;5.44;100.00;102110.38;2080698;28;20210;-64
2023/01/12 02:43:42;;;;;;;5.07;4.43;;;;;;;4.93;100.00;102037.44;2101397;28;20260;-64
2023/01/12 02:44:58;;;;;;;4.70;4.20;;;;;;;5.47;100.00;102120.66;2103954;28;20666;-63
2023/01/12 02:45:58;;;;;;;5.07;4.13;;;;;;;5.35;100.00;102115.31;2100774;28;20178;-64
2023/01/12 02:47:04;;;;;;;5.80;4.83;;;;;;;5.38;100.00;102116.53;2106125;28;20175;-64
2023/01/12 02:48:20;;;;;;;4.85;4.35;;;;;;;5.21;100.00;102082.03;2104994;28;20190;-64
2023/01/12 02:49:24;;;;;;;5.38;4.40;;;;;;;5.45;100.00;102101.00;2100009;28;20159;-64
2023/01/12 02:50:33;;;;;;;7.63;4.43;;;;;;;5.09;100.00;102046.44;2105729;28;20267;-63
2023/01/12 02:51:46;;;;;;;4.68;4.18;;;;;;;5.58;100.00;102107.09;2104846;28;20163;-63
2023/01/12 02:52:55;;;;;;;5.10;4.20;;;;;;;5.58;100.00;102107.91;2097778;28;20693;-63
2023/01/12 02:54:04;;;;;;;4.97;4.18;;;;;;;5.58;100.00;102107.09;2100239;28;20172;-64
2023/01/12 02:55:06;;;;;;;5.65;4.22;;;;;;;4.95;100.00;102015.91;2104233;28;20166;-63
2023/01/12 02:56:08;;;;;;;4.85;3.90;;;;;;;5.42;100.00;102084.41;2097708;28;20230;-63
2023/01/12 02:57:09;;;;;;;5.00;4.03;;;;;;;5.45;100.00;102097.44;2097295;28;20172;-64
2023/01/12 02:58:13;;;;;;;4.80;3.83;;;;;;;5.53;100.00;102108.22;2098327;28;20556;-63
2023/01/12 02:59:30;;;;;;;4.18;3.60;;;;;;;5.50;100.00;102116.41;2105706;28;20659;-64
2023/01/12 03:00:33;;;;;;;4.50;3.70;;;;;;;5.52;100.00;102108.56;2106203;28;20220;-64
2023/01/12 03:01:36;;;;;;;4.78;3.78;;;;;;;5.51;100.00;102113.28;2098216;28;20248;-63
2023/01/12 03:02:37;;;;;;;3.55;3.20;;;;;;;5.49;100.00;102110.09;2104965;28;20206;-64
2023/01/12 03:03:38;;;;;;;4.50;3.30;;;;;;;5.09;100.00;102043.69;2106416;28;20277;-64
2023/01/12 03:04:40;;;;;;;3.67;3.22;;;;;;;5.48;100.00;102111.25;2106056;28;20428;-64
2023/01/12 03:05:41;;;;;;;4.50;3.38;;;;;;;5.42;100.00;102107.19;2105989;28;20199;-63
2023/01/12 03:07:14;;;;;;;4.10;3.38;;;;;;;5.40;100.00;102103.22;2103063;28;20648;-64
2023/01/12 03:08:22;;;;;;;4.45;3.42;;;;;;;5.37;100.00;102099.25;2078295;28;20205;-64
2023/01/12 03:09:46;;;;;;;4.07;3.20;;;;;;;4.64;100.00;101991.31;2094246;28;20214;-64
2023/01/12 03:11:11;;;;;;;3.58;3.20;;;;;;;5.43;100.00;102099.75;2105349;28;20217;-64
2023/01/12 03:12:23;;;;;;;4.20;3.42;;;;;;;5.38;100.00;102098.06;2106295;28;20163;-63
2023/01/12 03:13:26;;;;;;;3.97;3.22;;;;;;;5.35;100.00;102101.56;2105239;28;20651;-64
2023/01/12 03:14:28;;;;;;;3.83;3.40;;;;;;;5.37;100.00;102103.94;2105262;28;20613;-64
2023/01/12 03:15:29;;;;;;;4.30;3.60;;;;;;;5.38;100.00;102106.31;2114631;28;20173;-63
2023/01/12 03:16:34;;;;;;;4.60;3.67;;;;;;;5.40;100.00;102101.28;2099352;28;20194;-63
2023/01/12 03:18:30;;;;;;;4.55;3.45;;;;;;;5.42;100.00;102109.94;2103535;28;20230;-64
2023/01/12 03:19:32;;;;;;;4.05;3.30;;;;;;;5.45;100.00;102108.44;2096624;28;20210;-63
2023/01/12 03:20:37;;;;;;;3.30;3.00;;;;;;;5.46;100.00;102113.56;2105645;28;20191;-63
2023/01/12 03:21:39;;;;;;;3.95;3.55;;;;;;;5.46;100.00;102115.53;2104066;28;20700;-64
2023/01/12 03:22:40;;;;;;;4.38;3.40;;;;;;;5.47;100.00;102108.84;2097669;28;20266;-64
2023/01/12 03:23:48;;;;;;;3.80;3.40;;;;;;;5.50;100.00;102117.19;2098175;28;20205;-64
2023/01/12 03:24:56;;;;;;;4.47;3.50;;;;;;;5.51;100.00;102118.78;2105665;28;20182;-63
2023/01/12 03:25:59;;;;;;;4.35;3.28;;;;;;;5.50;100.00;102114.44;2097914;28;20164;-64
2023/01/12 03:27:09;;;;;;;3.88;2.90;;;;;;;5.51;100.00;102120.72;2097507;28;20175;-63
2023/01/12 03:28:13;;;;;;;4.45;3.10;;;;;;;5.45;100.00;102109.25;2098214;28;20195;-63
2023/01/12 03:29:28;;;;;;;3.72;3.13;;;;;;;4.76;100.00;102004.09;2105814;28;20193;-63
2023/01/12 03:30:42;;;;;;;3.65;3.08;;;;;;;5.34;100.00;102121.94;2097573;28;20188;-64
2023/01/12 03:31:43;;;;;;;5.40;2.92;;;;;;;5.39;100.00;102118.91;2097861;28;20184;-64
2023/01/12 03:32:44;;;;;;;4.03;3.03;;;;;;;4.66;100.00;102010.19;2097918;28;20171;-63
2023/01/12 03:33:45;;;;;;;3.60;3.10;;;;;;;5.34;100.00;102108.19;2097901;28;20275;-63
2023/01/12 03:34:45;;;;;;;3.50;3.20;;;;;;;4.78;100.00;102023.78;2103838;28;20199;-64
2023/01/12 03:36:01;;;;;;;3.77;3.30;;;;;;;5.27;100.00;102110.81;2105786;28;20682;-64
2023/01/12 03:37:31;;;;;;;3.47;3.10;;;;;;;5.28;100.00;102114.38;2105591;28;20707;-63
2023/01/12 03:38:57;;;;;;;4.07;3.30;;;;;;;5.12;100.00;102113.63;2106311;28;20174;-64
2023/01/12 03:40:03;;;;;;;3.60;3.20;;;;;;;4.55;100.00;102023.66;2103730;28;20159;-65
2023/01/12 03:41:15;;;;;;;3.58;3.22;;;;;;;5.14;100.00;102116.81;2098765;28;20199;-63
2023/01/12 03:42:27;;;;;;;4.10;3.67;;;;;;;5.17;100.00;102099.56;2095357;28;20171;-63
2023/01/12 03:43:36;;;;;;;4.47;4.07;;;;;;;4.90;100.00;102095.06;2090254;28;20180;-64
2023/01/12 03:44:45;;;;;;;4.88;4.10;;;;;;;4.88;100.00;102106.41;2097183;28;20170;-63
2023/01/12 03:46:29;;;;;;;5.60;4.40;;;;;;;4.87;100.00;102109.53;2099540;28;20645;-63
2023/01/12 03:47:32;;;;;;;5.00;4.22;;;;;;;4.92;100.00;102110.03;2097513;28;20657;-64
2023/01/12 03:48:41;;;;;;;5.60;4.30;;;;;;;4.94;100.00;102102.25;2103240;28;20531;-64
2023/01/12 03:50:08;;;;;;;4.32;3.85;;;;;;;4.89;100.00;102105.28;2099276;28;20194;-63
2023/01/12 03:51:26;;;;;;;4.03;3.20;;;;;;;4.85;100.00;102111.81;2097808;28;20227;-64
2023/01/12 03:52:29;;;;;;;4.55;3.25;;;;;;;4.82;100.00;102096.06;2097583;28;20170;-63
2023/01/12 03:53:32;;;;;;;4.03;3.40;;;;;;;4.84;100.00;102110.22;2097860;28;20188;-64
2023/01/12 03:54:35;;;;;;;4.65;3.70;;;;;;;4.86;100.00;102108.72;2097567;28;20182;-63
2023/01/12 03:55:38;;;;;;;3.90;3.28;;;;;;;4.47;100.00;102043.84;2097335;28;20197;-64
2023/01/12 03:56:41;;;;;;;3.92;3.20;;;;;;;4.92;100.00;102107.28;2097426;28;20198;-64
2023/01/12 03:57:43;;;;;;;3.83;3.42;;;;;;;4.92;100.00;102106.50;2102673;28;20636;-63
2023/01/12 03:58:44;;;;;;;3.72;3.13;;;;;;;4.85;100.00;102098.09;2101216;28;20562;-63
2023/01/12 03:59:45;;;;;;;4.72;3.42;;;;;;;4.49;100.00;102052.56;2097117;28;20670;-63
2023/01/12 04:00:45;;;;;;;4.07;3.67;;;;;;;4.89;100.00;102107.22;2096513;28;20178;-64
2023/01/12 04:01:47;;;;;;;4.53;3.70;;;;;;;4.89;100.00;102105.28;2096532;28;20589;-64
2023/01/12 04:02:48;;;;;;;5.45;4.00;;;;;;;4.92;100.00;102104.53;2097128;28;20189;-63
2023/01/12 04:03:48;;;;;;;4.70;4.20;;;;;;;4.96;100.00;102107.34;2097741;28;20186;-63
2023/01/12 04:04:50;;;;;;;4.20;3.80;;;;;;;4.97;100.00;102107.00;2104554;28;20193;-63
2023/01/12 04:05:50;;;;;;;4.63;4.13;;;;;;;4.90;100.00;102092.31;2099379;28;20187;-63
2023/01/12 04:06:51;;;;;;;4.67;4.10;;;;;;;5.00;100.00;102100.81;2097580;28;20256;-64
2023/01/12 04:07:51;;;;;;;4.60;3.80;;;;;;;4.89;100.00;102085.22;2097024;28;20183;-63
2023/01/12 04:08:52;;;;;;;7.37;4.30;;;;;;;4.99;100.00;102101.16;2097388;28;20301;-63
2023/01/12 04:09:52;;;;;;;5.20;4.00;;;;;;;5.01;100.00;102099.66;2096963;28;20182;-63
2023/01/12 04:10:53;;;;;;;5.10;3.87;;;;;;;5.04;100.00;102098.13;2096427;28;20202;-62
2023/01/12 04:12:11;;;;;;;4.47;3.80;;;;;;;5.08;100.00;102091.53;2097880;28;20171;-63
2023/01/12 04:13:11;;;;;;;5.03;4.00;;;;;;;5.00;100.00;102073.31;2097161;28;20194;-63
2023/01/12 04:14:12;;;;;;;3.90;3.60;;;;;;;5.15;100.00;102094.47;2094171;28;20179;-64
2023/01/12 04:15:13;;;;;;;4.33;3.60;;;;;;;5.13;100.00;102095.97;2089951;28;20199;-63
2023/01/12 04:16:13;;;;;;;4.40;4.00;;;;;;;5.07;100.00;102097.44;2099333;28;20288;-63
2023/01/12 04:17:14;;;;;;;4.20;3.67;;;;;;;4.92;100.00;102079.03;2092640;28;20299;-63
2023/01/12 04:18:14;;;;;;;8.13;3.80;;;;;;;5.15;100.00;102094.47;2096837;28;20243;-63
2023/01/12 04:19:15;;;;;;;3.97;3.50;;;;;;;5.16;100.00;102098.00;2097262;28;20202;-64
2023/01/12 04:20:16;;;;;;;4.20;3.67;;;;;;;5.16;100.00;102098.81;2098020;28;20186;-64
2023/01/12 04:22:44;;;;;;;5.53;3.70;;;;;;;5.24;100.00;102100.53;2099021;28;20621;-64
2023/01/12 04:23:45;;;;;;;5.07;3.70;;;;;;;5.26;100.00;102105.66;2105792;28;20165;-63
2023/01/12 04:24:47;;;;;;;4.40;4.00;;;;;;;5.26;100.00;102102.91;2104465;28;20212;-63
2023/01/12 04:25:47;;;;;;;4.30;3.90;;;;;;;5.27;100.00;102104.50;2097293;28;20192;-64
2023/01/12 04:26:48;;;;;;;3.80;3.40;;;;;;;5.24;100.00;102108.78;2097245;28;20229;-63
2023/01/12 04:28:06;;;;;;;5.10;3.87;;;;;;;5.26;100.00;102100.97;2103959;28;20643;-64
2023/01/12 04:29:06;;;;;;;3.72;3.22;;;;;;;5.20;100.00;102104.38;2097244;28;20649;-63
2023/01/12 04:30:07;;;;;;;4.03;3.40;;;;;;;5.19;100.00;102103.56;2094239;28;20190;-64
2023/01/12 04:31:08;;;;;;;3.58;3.17;;;;;;;5.21;100.00;102101.25;2096156;28;20205;-63
2023/01/12 04:32:09;;;;;;;4.90;3.50;;;;;;;5.26;100.00;102108.41;2097286;28;20196;-64
2023/01/12 04:33:10;;;;;;;4.18;3.78;;;;;;;5.03;100.00;102075.34;2100653;28;20249;-64
2023/01/12 04:34:10;;;;;;;4.95;3.65;;;;;;;5.30;100.00;102106.53;2103421;28;20281;-64
2023/01/12 04:35:11;;;;;;;3.90;3.43;;;;;;;4.89;100.00;102044.84;2096921;28;20182;-63
2023/01/12 04:36:12;;;;;;;4.40;3.67;;;;;;;5.33;100.00;102112.13;2096999;28;20262;-64
2023/01/12 04:37:13;;;;;;;5.43;4.20;;;;;;;5.37;100.00;102109.44;2096956;28;20185;-64
2023/01/12 04:38:15;;;;;;;4.83;4.30;;;;;;;5.38;100.00;102111.81;2096923;28;20191;-63
2023/01/12 04:39:16;;;;;;;5.10;4.30;;;;;;;5.37;100.00;102107.50;2103631;28;20276;-63
2023/01/12 04:40:16;;;;;;;6.77;4.83;;;;;;;5.36;100.00;102108.66;2104543;28;20679;-64
2023/01/12 04:41:17;;;;;;;5.67;4.67;;;;;;;5.04;100.00;102045.94;2105425;28;20662;-63
2023/01/12 04:43:36;;;;;;;6.45;5.10;;;;;;;5.37;100.00;102104.75;2101394;28;20257;-63
2023/01/12 04:44:37;;;;;;;6.07;5.20;;;;;;;5.36;100.00;102102.34;2096789;28;20194;-63
2023/01/12 04:45:40;;;;;;;6.17;5.03;;;;;;;5.38;100.00;102105.53;2096850;28;20211;-64
2023/01/12 04:46:40;;;;;;;6.95;4.93;;;;;;;5.38;100.00;102103.56;2098196;28;20185;-63
2023/01/12 04:47:41;;;;;;;6.30;4.80;;;;;;;5.37;100.00;102102.00;2105084;28;20182;-64
2023/01/12 04:48:42;;;;;;;7.03;5.13;;;;;;;5.45;100.00;102108.44;2104055;28;20248;-63
2023/01/12 04:49:43;;;;;;;5.43;4.88;;;;;;;5.37;100.00;102102.00;2095962;28;20216;-63
2023/01/12 04:50:43;;;;;;;5.33;4.83;;;;;;;5.37;100.00;102102.00;2095870;28;20216;-64
2023/01/12 04:51:44;;;;;;;4.80;4.30;;;;;;;5.10;100.00;102064.53;2105696;28;20201;-64
2023/01/12 04:52:45;;;;;;;7.63;4.57;;;;;;;5.30;100.00;102104.59;2101198;28;20190;-64
2023/01/12 04:53:47;;;;;;;5.67;4.40;;;;;;;5.31;100.00;102102.63;2099910;28;20203;-64
2023/01/12 04:54:47;;;;;;;5.35;4.70;;;;;;;5.34;100.00;102105.44;2105480;28;20535;-64
2023/01/12 04:55:48;;;;;;;5.00;4.33;;;;;;;5.31;100.00;102094.38;2104551;28;20181;-64
2023/01/12 04:56:48;;;;;;;4.90;4.40;;;;;;;4.83;100.00;102026.25;2097306;28;20649;-58
2023/01/12 04:57:49;;;;;;;6.23;4.70;;;;;;;4.69;100.00;102009.44;2097187;28;20572;-59
2023/01/12 04:58:54;;;;;;;5.80;4.43;;;;;;;5.40;100.00;102116.97;2103941;28;20344;-58
2023/01/12 04:59:55;;;;;;;6.75;4.07;;;;;;;5.44;100.00;102128.84;2096354;28;20182;-59
2023/01/12 05:00:55;;;;;;;4.20;3.60;;;;;;;4.81;100.00;102026.59;2090917;28;20202;-59
2023/01/12 05:01:55;;;;;;;6.20;3.30;;;;;;;5.42;100.00;102118.19;2099605;28;20300;-59
2023/01/12 05:02:59;;;;;;;4.70;3.60;;;;;;;5.27;100.00;102093.50;2104005;28;20206;-66
2023/01/12 05:04:00;;;;;;;3.88;3.33;;;;;;;5.33;100.00;102114.84;2103823;28;20240;-60
2023/01/12 05:05:00;;;;;;;6.07;3.60;;;;;;;5.32;100.00;102120.72;2103468;28;20185;-59
2023/01/12 05:06:01;;;;;;;4.70;3.47;;;;;;;5.27;100.00;102121.00;2104711;28;20262;-60
2023/01/12 05:07:02;;;;;;;5.10;4.05;;;;;;;5.29;100.00;102116.72;2104379;28;20202;-59
2023/01/12 05:10:41;;;;;;;4.85;4.07;;;;;;;5.23;100.00;102111.91;2103110;28;20205;-61
2023/01/12 05:11:42;;;;;;;6.03;4.17;;;;;;;5.21;100.00;102126.00;2093120;28;20233;-60
2023/01/12 05:12:43;;;;;;;5.23;4.50;;;;;;;5.25;100.00;102123.31;2094507;28;20190;-61
2023/01/12 05:13:43;;;;;;;5.00;4.35;;;;;;;4.82;100.00;102047.41;2101638;28;20190;-60
2023/01/12 05:14:44;;;;;;;5.03;4.10;;;;;;;5.29;100.00;102111.22;2103435;28;20186;-60
2023/01/12 05:15:44;;;;;;;6.33;5.13;;;;;;;5.31;100.00;102125.44;2084316;28;20660;-60
2023/01/12 05:16:45;;;;;;;7.57;5.73;;;;;;;5.34;100.00;102116.44;2100977;28;20181;-60
2023/01/12 05:17:45;;;;;;;8.23;6.67;;;;;;;5.33;100.00;102123.09;2096753;28;20275;-59